createdAt,value
2022-11-30T00:02:09.589Z,42.95
2022-11-30T00:07:13.965Z,42.00
2022-11-30T00:12:16.872Z,41.85
2022-11-30T00:17:19.754Z,42.42
2022-11-30T00:22:24.006Z,44.55
2022-11-30T00:27:26.952Z,44.53
2022-11-30T00:32:30.438Z,43.60
2022-11-30T00:37:36.323Z,44.08
2022-11-30T00:42:39.215Z,43.65
2022-11-30T00:47:42.107Z,43.08
2022-11-30T00:52:46.357Z,42.53
2022-11-30T00:57:49.305Z,43.55
2022-11-30T01:02:55.013Z,43.75
2022-11-30T01:08:00.969Z,42.78
2022-11-30T01:13:04.707Z,41.45
2022-11-30T01:18:07.791Z,42.42
2022-11-30T01:23:12.428Z,41.90
2022-11-30T01:28:15.305Z,41.25
2022-11-30T01:33:18.230Z,41.38
2022-11-30T01:38:22.437Z,41.53
2022-11-30T01:43:38.696Z,41.13
2022-11-30T01:48:43.295Z,40.30
2022-11-30T01:53:47.798Z,40.22
2022-11-30T01:58:51.021Z,38.47
2022-11-30T02:03:59.027Z,38.78
2022-11-30T02:09:03.653Z,38.40
2022-11-30T02:14:19.058Z,37.67
2022-11-30T02:20:03.447Z,36.72
2022-11-30T02:25:15.793Z,38.75
2022-11-30T02:30:21.681Z,38.95
2022-11-30T02:35:28.709Z,38.38
2022-11-30T02:40:32.755Z,40.55
2022-11-30T02:45:42.816Z,40.08
2022-11-30T02:50:49.629Z,38.45
2022-11-30T02:55:54.016Z,40.35
2022-11-30T03:00:58.225Z,39.58
2022-11-30T03:06:01.191Z,41.40
2022-11-30T03:11:04.783Z,41.20
2022-11-30T03:16:10.883Z,39.45
2022-11-30T03:21:14.346Z,38.25
2022-11-30T03:26:17.558Z,39.63
2022-11-30T03:31:21.956Z,43.42
2022-11-30T03:36:24.929Z,40.67
2022-11-30T03:41:27.893Z,39.55
2022-11-30T03:46:32.134Z,39.63
2022-11-30T03:51:35.424Z,40.15
2022-11-30T03:56:38.956Z,41.67
2022-11-30T04:01:43.438Z,41.17
2022-11-30T04:06:46.427Z,40.83
2022-11-30T04:11:49.329Z,40.83
2022-11-30T04:16:53.652Z,39.72
2022-11-30T04:21:56.577Z,39.95
2022-11-30T04:26:59.798Z,42.35
2022-11-30T04:32:04.036Z,40.92
2022-11-30T04:37:07.554Z,41.75
2022-11-30T04:42:10.443Z,43.15
2022-11-30T04:47:14.750Z,42.65
2022-11-30T04:52:17.724Z,43.50
2022-11-30T04:57:24.866Z,43.47
2022-11-30T05:02:30.485Z,42.80
2022-11-30T05:07:33.558Z,44.05
2022-11-30T05:12:36.683Z,44.28
2022-11-30T05:17:41.033Z,42.40
2022-11-30T05:22:44.143Z,44.63
2022-11-30T05:27:47.050Z,41.47
2022-11-30T05:32:51.327Z,42.13
2022-11-30T05:37:54.241Z,42.20
2022-11-30T05:42:57.868Z,41.63
2022-11-30T05:48:02.142Z,42.13
2022-11-30T05:53:05.061Z,42.15
2022-11-30T05:58:09.038Z,42.13
2022-11-30T06:03:13.302Z,41.97
2022-11-30T06:08:16.342Z,42.88
2022-11-30T06:13:19.240Z,42.05
2022-11-30T06:18:23.479Z,42.50
2022-11-30T06:23:26.373Z,48.17
2022-11-30T06:28:29.250Z,41.47
2022-11-30T06:33:33.767Z,41.15
2022-11-30T06:38:36.700Z,41.35
2022-11-30T06:43:40.588Z,41.00
2022-11-30T06:48:44.809Z,40.42
2022-11-30T06:53:48.135Z,40.83
2022-11-30T06:58:52.042Z,39.75
2022-11-30T07:03:56.322Z,40.58
2022-11-30T07:08:59.237Z,41.10
2022-11-30T07:14:02.212Z,41.25
2022-11-30T07:19:06.679Z,41.55
2022-11-30T07:24:27.610Z,40.05
2022-11-30T07:29:30.915Z,40.60
2022-11-30T07:34:35.245Z,41.33
2022-11-30T07:39:39.274Z,40.97
2022-11-30T07:44:42.432Z,41.08
2022-11-30T07:49:46.645Z,41.20
2022-11-30T07:54:49.842Z,40.75
2022-11-30T07:59:53.041Z,40.33
2022-11-30T08:04:58.641Z,40.55
2022-11-30T08:10:01.679Z,39.75
2022-11-30T08:15:19.759Z,41.33
2022-11-30T08:20:25.018Z,41.03
2022-11-30T08:25:28.600Z,40.58
2022-11-30T08:30:32.719Z,40.17
2022-11-30T08:35:37.289Z,41.15
2022-11-30T08:40:40.221Z,40.67
2022-11-30T08:45:43.198Z,40.42
2022-11-30T08:50:47.507Z,41.25
2022-11-30T08:55:57.655Z,40.47
2022-11-30T09:01:07.460Z,40.33
2022-11-30T09:06:13.998Z,41.97
2022-11-30T09:11:20.000Z,40.45
2022-11-30T09:16:23.062Z,42.60
2022-11-30T09:21:27.650Z,42.38
2022-11-30T09:26:30.625Z,42.72
2022-11-30T09:31:33.537Z,40.95
2022-11-30T09:36:37.785Z,41.58
2022-11-30T09:42:06.020Z,40.67
2022-11-30T09:47:21.062Z,40.78
2022-11-30T09:52:34.922Z,40.78
2022-11-30T09:57:46.284Z,40.22
2022-11-30T10:02:51.065Z,40.60
2022-11-30T10:08:13.162Z,41.17
2022-11-30T10:13:32.283Z,40.28
2022-11-30T10:18:47.192Z,40.10
2022-11-30T10:24:11.438Z,39.75
2022-11-30T10:29:19.844Z,38.85
2022-11-30T10:34:24.900Z,38.85
2022-11-30T10:39:34.663Z,39.95
2022-11-30T10:44:40.089Z,39.95
2022-11-30T10:49:47.128Z,39.35
2022-11-30T10:54:59.093Z,39.83
2022-11-30T11:00:07.386Z,39.53
2022-11-30T11:05:17.472Z,38.97
2022-11-30T11:10:25.396Z,39.38
2022-11-30T11:15:29.930Z,39.35
2022-11-30T11:20:35.613Z,39.15
2022-11-30T11:25:43.108Z,39.22
2022-11-30T11:30:46.099Z,39.13
2022-11-30T11:35:50.780Z,39.50
2022-11-30T11:40:57.714Z,39.70
2022-11-30T11:46:03.778Z,40.05
2022-11-30T11:51:08.900Z,39.53
2022-11-30T11:56:24.862Z,38.53
2022-11-30T12:01:56.244Z,38.83
2022-11-30T12:07:03.485Z,38.50
2022-11-30T12:12:44.411Z,38.38
2022-11-30T12:18:23.535Z,38.72
2022-11-30T12:23:53.122Z,38.20
2022-11-30T12:29:31.376Z,38.17
2022-11-30T12:34:51.205Z,38.65
2022-11-30T12:40:19.658Z,38.92
2022-11-30T12:45:44.218Z,38.75
2022-11-30T12:51:05.487Z,38.25
2022-11-30T12:56:23.211Z,39.67
2022-11-30T13:02:21.507Z,38.45
2022-11-30T13:08:48.545Z,39.17
2022-11-30T13:13:58.244Z,38.63
2022-11-30T13:19:21.867Z,38.35
2022-11-30T13:24:40.675Z,37.28
2022-11-30T13:30:40.042Z,38.55
2022-11-30T13:36:00.171Z,38.90
2022-11-30T13:41:12.732Z,39.33
2022-11-30T13:46:20.909Z,39.22
2022-11-30T13:51:41.919Z,39.45
2022-11-30T13:56:48.976Z,39.13
2022-11-30T14:01:52.404Z,40.92
2022-11-30T14:06:56.913Z,39.63
2022-11-30T14:12:00.016Z,39.65
2022-11-30T14:17:03.075Z,40.15
2022-11-30T14:22:12.657Z,40.35
2022-11-30T14:27:19.345Z,39.40
2022-11-30T14:32:31.062Z,40.35
2022-11-30T14:37:42.642Z,40.15
2022-11-30T14:42:49.926Z,40.17
2022-11-30T14:47:54.806Z,39.80
2022-11-30T14:53:14.293Z,39.78
2022-11-30T14:58:26.797Z,40.05
2022-11-30T15:03:37.338Z,39.35
2022-11-30T15:08:52.087Z,39.72
2022-11-30T15:13:56.990Z,40.60
2022-11-30T15:19:00.975Z,40.50
2022-11-30T15:24:05.814Z,39.85
2022-11-30T15:29:14.149Z,39.78
2022-11-30T15:34:20.471Z,40.00
2022-11-30T15:39:27.341Z,39.65
2022-11-30T15:44:41.520Z,38.72
2022-11-30T15:49:52.975Z,39.38
2022-11-30T15:55:02.108Z,38.55
2022-11-30T16:00:08.865Z,38.20
2022-11-30T16:05:25.732Z,39.08
2022-11-30T16:10:34.799Z,38.88
2022-11-30T16:15:39.120Z,37.20
2022-11-30T16:20:42.214Z,38.17
2022-11-30T16:25:50.403Z,38.00
2022-11-30T16:30:55.620Z,38.25
2022-11-30T16:36:01.726Z,38.47
2022-11-30T16:41:14.989Z,38.72
2022-11-30T16:46:20.151Z,40.85
2022-11-30T16:51:25.811Z,38.53
2022-11-30T16:56:31.134Z,37.22
2022-11-30T17:01:37.115Z,35.97
2022-11-30T17:06:40.309Z,39.60
2022-11-30T17:11:45.477Z,36.10
2022-11-30T17:16:48.522Z,36.25
2022-11-30T17:21:51.482Z,36.97
2022-11-30T17:26:55.869Z,37.05
2022-11-30T17:32:00.847Z,37.15
2022-11-30T17:37:03.929Z,37.15
2022-11-30T17:42:08.385Z,37.75
2022-11-30T17:47:11.278Z,38.00
2022-11-30T17:52:14.196Z,37.58
2022-11-30T17:57:18.761Z,36.95
2022-11-30T18:02:24.551Z,37.40
2022-11-30T18:07:28.079Z,37.30
2022-11-30T18:12:38.436Z,36.55
2022-11-30T18:17:42.246Z,35.95
2022-11-30T18:22:45.389Z,36.45
2022-11-30T18:27:52.999Z,35.90
2022-11-30T18:32:56.106Z,36.40
2022-11-30T18:37:59.152Z,36.47
2022-11-30T18:43:21.009Z,35.08
2022-11-30T18:48:24.044Z,36.65
2022-11-30T18:53:39.417Z,36.65
2022-11-30T18:58:43.952Z,36.47
2022-11-30T19:03:55.755Z,37.40
2022-11-30T19:08:59.135Z,36.72
2022-11-30T19:14:04.955Z,37.63
2022-11-30T19:19:10.202Z,37.97
2022-11-30T19:24:13.376Z,37.38
2022-11-30T19:29:17.812Z,36.58
2022-11-30T19:34:21.918Z,37.00
2022-11-30T19:39:25.126Z,37.38
2022-11-30T19:44:29.657Z,37.67
2022-11-30T19:49:36.706Z,37.05
2022-11-30T19:54:39.993Z,37.33
2022-11-30T19:59:44.482Z,38.25
2022-11-30T20:04:48.156Z,38.10
2022-11-30T20:09:51.635Z,37.38
2022-11-30T20:14:56.308Z,37.78
2022-11-30T20:19:59.519Z,37.25
2022-11-30T20:25:02.787Z,38.25
2022-11-30T20:30:08.877Z,38.08
2022-11-30T20:35:24.354Z,41.33
2022-11-30T20:40:27.737Z,37.85
2022-11-30T20:45:33.772Z,38.90
2022-11-30T20:50:40.734Z,38.33
2022-11-30T20:55:43.913Z,37.33
2022-11-30T21:00:48.308Z,37.80
2022-11-30T21:05:51.431Z,37.40
2022-11-30T21:11:01.886Z,37.35
2022-11-30T21:16:08.259Z,36.78
2022-11-30T21:21:15.322Z,36.53
2022-11-30T21:26:20.645Z,36.42
2022-11-30T21:31:26.182Z,36.97
2022-11-30T21:36:29.684Z,37.33
2022-11-30T21:41:32.654Z,37.03
2022-11-30T21:46:45.475Z,36.88
2022-11-30T21:51:48.588Z,37.95
2022-11-30T21:56:52.600Z,37.95
2022-11-30T22:01:57.081Z,36.67
2022-11-30T22:07:03.136Z,37.30
2022-11-30T22:12:09.286Z,36.90
2022-11-30T22:17:13.569Z,37.20
2022-11-30T22:22:16.615Z,37.28
2022-11-30T22:27:19.764Z,37.20
2022-11-30T22:32:24.128Z,35.97
2022-11-30T22:37:27.230Z,38.60
2022-11-30T22:42:30.202Z,37.80
2022-11-30T22:47:34.623Z,37.55
2022-11-30T22:53:01.970Z,37.50
2022-11-30T22:58:00.471Z,37.65
2022-11-30T23:03:04.982Z,37.17
2022-11-30T23:08:08.109Z,37.33
2022-11-30T23:13:11.199Z,36.85
2022-11-30T23:18:15.503Z,37.13
2022-11-30T23:23:18.514Z,37.65
2022-11-30T23:28:21.441Z,37.50
2022-11-30T23:33:25.793Z,38.22
2022-11-30T23:38:28.713Z,37.22
2022-11-30T23:43:31.705Z,38.03
2022-11-30T23:48:36.254Z,37.45
2022-11-30T23:53:39.421Z,37.35
2022-11-30T23:58:42.562Z,37.28
